Flight Track Log - Related Links

Times and Time Zones

All times are in EDT time to prevent confusion due to time zone crossing. See the SWA975 flight status page for this flight to view local times or setup timezone preferences in your user account.

Time Position Orientation Groundspeed Altitude Reporting Facility
EDT Latitude Longitude Course Direction KTS MPH feet Rate Location/Type
Sat 07:15:32 PM 37.6500 -122.3333 58° Northeast 190 219 2,300  Level Northern Cal TRACON
Sat 07:16:32 PM 37.6833 -122.2667 58° Northeast 237 273 5,600 3,500 Climbing Northern Cal TRACON
Sat 07:17:32 PM 37.7500 -122.1833 45° Northeast 293 337 9,300 3,108 Climbing Northern Cal TRACON
Sat 07:19:18 PM 37.7967 -122.0167 70° East 340 391 14,200 3,090 Climbing Oakland Center
Sat 07:20:19 PM 37.8392 -121.8639 71° East 381 438 17,900 3,344 Climbing Oakland Center
Sat 07:21:20 PM 37.8742 -121.7278 72° East 402 463 21,000 2,732 Climbing Oakland Center
Sat 07:22:22 PM 37.9039 -121.5858 75° East 415 478 23,500 2,341 Climbing Oakland Center
Sat 07:23:23 PM 37.9389 -121.4344 74° East 439 505 25,800 2,311 Climbing Oakland Center
Sat 07:24:24 PM 37.9725 -121.2800 75° East 453 521 28,200 2,213 Climbing Oakland Center
Sat 07:25:25 PM 38.0064 -121.1242 75° East 460 529 30,300 1,820 Climbing Oakland Center
Sat 07:26:26 PM 38.0403 -120.9647 75° East 466 536 31,900 1,721 Climbing Oakland Center
Sat 07:27:27 PM 38.0758 -120.8025 74° East 475 547 33,800 1,770 Climbing Oakland Center
Sat 07:28:28 PM 38.1111 -120.6414 74° East 478 550 35,500 1,770 Climbing Oakland Center
Sat 07:29:29 PM 38.1847 -120.4631 62° Northeast 478 550 37,400 1,561 Climbing Oakland Center
Sat 07:30:31 PM 38.2500 -120.3164 60° Northeast 480 552 38,700 780 Climbing Oakland Center
Sat 07:31:32 PM 38.2858 -120.1550 74° East 480 552 39,000 148 Climbing Oakland Center
Sat 07:32:33 PM 38.3211 -119.9936 74° East 475 547 39,000  Level Oakland Center
Sat 07:33:34 PM 38.3522 -119.8306 76° East 476 548 39,000  Level Oakland Center
Sat 07:34:35 PM 38.3839 -119.6672 76° East 478 550 39,000  Level Oakland Center
Sat 07:35:36 PM 38.4217 -119.4864 75° East 477 549 39,000  Level Oakland Center
Sat 07:36:37 PM 38.4525 -119.3192 77° East 484 557 39,000  Level Oakland Center
Sat 07:37:39 PM 38.4850 -119.1547 76° East 482 555 39,000  Level Oakland Center
Sat 07:38:40 PM 38.5164 -118.9886 76° East 484 557 39,000  Level Oakland Center
Sat 07:39:41 PM 38.5483 -118.8233 76° East 484 557 39,000  Level Oakland Center
Sat 07:40:42 PM 38.5803 -118.6567 76° East 484 557 39,000  Level Oakland Center
Sat 07:41:43 PM 38.6117 -118.4908 76° East 484 557 39,000  Level Oakland Center
Sat 07:42:44 PM 38.6422 -118.3269 77° East 478 550 39,000  Level Oakland Center
Sat 07:43:46 PM 38.6731 -118.1608 77° East 483 556 39,000  Level Oakland Center
Sat 07:44:47 PM 38.7097 -117.9625 77° East 481 554 39,000  Level Oakland Center
Sat 07:45:48 PM 38.7397 -117.7981 77° East 478 550 39,000  Level Oakland Center
Sat 07:46:49 PM 38.7697 -117.6278 77° East 480 552 39,000  Level Oakland Center
Sat 07:47:50 PM 38.7992 -117.4608 77° East 479 551 39,000  Level Oakland Center
Sat 07:48:52 PM 38.8289 -117.2917 77° East 483 556 39,000  Level Oakland Center
Sat 07:49:53 PM 38.8578 -117.1236 78° East 481 554 39,000  Level Oakland Center
Sat 07:50:54 PM 38.8869 -116.9539 77° East 483 556 39,000  Level Oakland Center
Sat 07:51:24 PM 38.9022 -116.8636 78° East 483 556 39,000  Level Salt Lake Center
Sat 07:52:25 PM 38.9325 -116.6831 78° East 485 558 39,000  Level Salt Lake Center
Sat 07:53:27 PM 38.9608 -116.5128 78° East 486 559 39,000  Level Salt Lake Center
Sat 07:54:28 PM 38.9897 -116.3422 78° East 487 560 39,000  Level Salt Lake Center
Sat 07:55:30 PM 39.0181 -116.1706 78° East 490 564 39,000  Level Salt Lake Center
Sat 07:56:31 PM 39.0456 -116.0017 78° East 484 557 39,000  Level Salt Lake Center
Sat 07:57:33 PM 39.0736 -115.8314 78° East 485 558 39,000  Level Salt Lake Center
Sat 07:58:34 PM 39.1000 -115.6622 79° East 483 556 39,000  Level Salt Lake Center
Sat 07:59:36 PM 39.1272 -115.4953 78° East 477 549 39,000  Level Salt Lake Center
Sat 08:00:37 PM 39.1592 -115.2967 78° East 487 560 39,000  Level Salt Lake Center
Sat 08:01:39 PM 39.1847 -115.1344 78° East 486 559 39,000  Level Salt Lake Center
Sat 08:02:40 PM 39.2083 -114.9753 79° East 478 550 39,000  Level Salt Lake Center
Sat 08:03:42 PM 39.2361 -114.7864 79° East 479 551 39,000  Level Salt Lake Center
Sat 08:04:43 PM 39.2625 -114.6231 78° East 484 557 39,000  Level Salt Lake Center
Sat 08:05:44 PM 39.2903 -114.4353 79° East 480 552 39,000  Level Salt Lake Center
Sat 08:06:46 PM 39.3181 -114.2647 78° East 491 565 39,000  Level Salt Lake Center
Sat 08:07:47 PM 39.3425 -114.0961 79° East 483 556 39,000 390 Level Salt Lake Center
Sat 08:08:49 PM 39.3669 -113.9283 79° East 477 549 39,800 585 Climbing Salt Lake Center
Sat 08:09:50 PM 39.3908 -113.7558 80° East 484 557 40,200 492 Climbing Salt Lake Center
Sat 08:10:51 PM 39.4167 -113.5767 79° East 501 577 40,800 390 Climbing Salt Lake Center
Sat 08:11:53 PM 39.4417 -113.3972 80° East 507 583 41,000 98 Climbing Salt Lake Center
Sat 08:12:54 PM 39.4667 -113.2194 80° East 504 580 41,000  Level Salt Lake Center
Sat 08:13:55 PM 39.4958 -113.0064 80° East 501 577 41,000  Level Salt Lake Center
Sat 08:14:57 PM 39.5208 -112.8281 80° East 502 578 41,000  Level Salt Lake Center
Sat 08:15:58 PM 39.5458 -112.6422 80° East 503 579 41,000  Level Salt Lake Center
Sat 08:17:00 PM 39.5689 -112.4614 81° East 508 585 41,000  Level Salt Lake Center
Sat 08:18:01 PM 39.5908 -112.2825 81° East 506 582 41,000  Level Salt Lake Center
Sat 08:19:02 PM 39.6142 -112.1047 80° East 504 580 41,000  Level Salt Lake Center
Sat 08:20:04 PM 39.6356 -111.9269 81° East 503 579 41,000  Level Salt Lake Center
Sat 08:21:05 PM 39.6578 -111.7497 81° East 503 579 41,000  Level Salt Lake Center
Sat 08:22:06 PM 39.6808 -111.5719 80° East 503 579 41,000  Level Salt Lake Center
Sat 08:23:08 PM 39.7019 -111.3947 81° East 501 577 41,000  Level Salt Lake Center
Sat 08:24:09 PM 39.7244 -111.2072 81° East 499 574 41,000  Level Salt Lake Center
Sat 08:25:11 PM 39.7497 -111.0075 81° East 500 575 41,000  Level Salt Lake Center
Sat 08:26:12 PM 39.7692 -110.8378 81° East 498 573 41,000  Level Salt Lake Center
Sat 08:27:13 PM 39.7917 -110.6425 81° East 492 566 41,000  Level Salt Lake Center
Sat 08:28:15 PM 39.8106 -110.4739 82° East 492 566 41,000  Level Salt Lake Center
Sat 08:29:16 PM 39.8294 -110.3033 82° East 496 571 41,000  Level Salt Lake Center
Sat 08:30:18 PM 39.8503 -110.1044 82° East 496 571 41,000  Level Salt Lake Center
Sat 08:31:19 PM 39.8689 -109.9358 82° East 491 565 41,000  Level Salt Lake Center
Sat 08:31:59 PM 39.8806 -109.8247 82° East 486 559 41,000  Level Denver Center
Sat 08:33:00 PM 39.9011 -109.6314 82° East 482 555 41,000  Level Denver Center
Sat 08:34:02 PM 39.9175 -109.4675 83° East 478 550 41,000  Level Denver Center
Sat 08:35:03 PM 39.9347 -109.3031 82° East 478 550 41,000  Level Denver Center
Sat 08:36:04 PM 39.9544 -109.1128 82° East 472 543 41,000  Level Denver Center
Sat 08:37:06 PM 39.9714 -108.9461 82° East 478 550 41,000 -49 Level Denver Center
Sat 08:38:07 PM 39.9897 -108.7528 83° East 478 550 40,900 -492 Descending Denver Center
Sat 08:39:08 PM 40.0061 -108.5878 83° East 476 548 40,000 -878 Descending Denver Center
Sat 08:40:10 PM 40.0228 -108.4178 83° East 487 560 39,100 -488 Descending Denver Center
Sat 08:41:11 PM 40.0406 -108.2211 83° East 488 562 39,000 -49 Descending Denver Center
Sat 08:42:12 PM 40.0561 -108.0528 83° East 487 560 39,000  Level Denver Center
Sat 08:43:14 PM 40.0739 -107.8864 82° East 483 556 39,000 -244 Level Denver Center
Sat 08:44:15 PM 40.1153 -107.6953 74° East 489 563 38,500 -738 Descending Denver Center
Sat 08:45:16 PM 40.1472 -107.5311 76° East 487 560 37,500 -934 Descending Denver Center
Sat 08:46:17 PM 40.1800 -107.3681 75° East 485 558 36,600 -976 Descending Denver Center
Sat 08:47:19 PM 40.2183 -107.1764 75° East 487 560 35,500 -780 Descending Denver Center
Sat 08:48:20 PM 40.2492 -107.0119 76° East 488 562 35,000 -246 Descending Denver Center
Sat 08:49:21 PM 40.2589 -106.8461 86° East 476 548 35,000  Level Denver Center
Sat 08:50:22 PM 40.2728 -106.6786 84° East 473 544 35,000  Level Denver Center
Sat 08:51:23 PM 40.2867 -106.4925 84° East 470 541 35,000 -341 Level Denver Center
Sat 08:52:25 PM 40.2997 -106.3022 85° East 468 539 34,300 -1,951 Descending Denver Center
Sat 08:53:26 PM 40.3125 -106.1236 85° East 470 541 31,000 -2,902 Descending Denver Center
Sat 08:54:27 PM 40.3236 -105.9533 85° East 468 539 28,400 -2,459 Descending Denver Center
Sat 08:55:28 PM 40.3336 -105.7892 85° East 455 524 26,000 -2,361 Descending Denver Center
Sat 08:56:29 PM 40.3442 -105.6297 85° East 444 511 23,600 -1,951 Descending Denver Center
Sat 08:57:31 PM 40.3542 -105.4786 85° East 422 486 22,000 -1,561 Descending Denver Center
Sat 08:58:32 PM 40.3056 -105.3572 118° Southeast 374 430 20,400 -1,623 Descending Denver Center
Sat 08:59:33 PM 40.2589 -105.2469 119° Southeast 351 404 18,700 -1,574 Descending Denver Center
Sat 09:00:34 PM 40.2194 -105.1228 113° Southeast 344 396 17,200 -1,610 Descending Denver Center
Sat 09:01:36 PM 40.1608 -105.0339 131° Southeast 322 371 15,400 -1,707 Descending Denver Center
Sat 09:02:37 PM 40.1036 -104.9447 130° Southeast 320 368 13,700 -1,230 Descending Denver Center
Sat 09:03:38 PM 40.0494 -104.8608 130° Southeast 301 346 12,900 -1,131 Descending Denver Center
Sat 09:04:39 PM 39.9897 -104.7706 131° Southeast 304 350 11,400 -927 Descending Denver Center
Sat 09:05:41 PM 39.9689 -104.6767 106° East 275 316 11,000 -195 Descending Denver Center
Sat 09:06:42 PM 39.9731 -104.5853 87° East 255 293 11,000 -148 Level Denver Center
Sat 09:07:43 PM 39.9681 -104.5028 94° East 235 270 10,700 -878 Descending Denver Center
Sat 09:08:45 PM 39.9144 -104.4797 162° South 186 214 9,200 -1,756 Descending Denver Center
Sat 09:09:46 PM 39.8742 -104.5067 207° Southwest 182 209 7,100 -1,574 Descending Denver Center
Sat 09:10:47 PM 39.8767 -104.5664 273° West 165 190 6,000 -927 Descending Denver Center
Sat 09:11:49 PM 39.8772 -104.6214 271° West 142 163 5,200 -341 Descending Denver Center
Sat 09:12:50 PM 39.8775 -104.6486 271° West 106 122 5,300 98 Climbing Denver Center
Sat 09:14:00 PM 39.8617 -104.6732 195° South  Level Estimated
Sat 09:21:00 PM 39.8617 -104.6732 North  Level Estimated
Sat 09:22:00 PM 39.8617 -104.6732 North  Level Estimated

Login

Don't have an account? Register now (free) for customized features, flight alerts, and more!